sensor_id;sensor_type;location;lat;lon;timestamp;P1;durP1;ratioP1;P2;durP2;ratioP2
56477;SDS011;42382;53.210;5.772;2024-03-25T00:00:28;20.70;;;2.45;;
56477;SDS011;42382;53.210;5.772;2024-03-25T00:02:54;17.63;;;2.10;;
56477;SDS011;42382;53.210;5.772;2024-03-25T00:05:20;16.63;;;2.60;;
56477;SDS011;42382;53.210;5.772;2024-03-25T00:07:48;16.50;;;1.88;;
56477;SDS011;42382;53.210;5.772;2024-03-25T00:10:14;20.65;;;1.88;;
56477;SDS011;42382;53.210;5.772;2024-03-25T00:12:40;22.50;;;2.75;;
56477;SDS011;42382;53.210;5.772;2024-03-25T00:15:06;22.83;;;3.10;;
56477;SDS011;42382;53.210;5.772;2024-03-25T00:17:32;15.27;;;1.05;;
56477;SDS011;42382;53.210;5.772;2024-03-25T00:19:58;13.75;;;1.52;;
56477;SDS011;42382;53.210;5.772;2024-03-25T00:22:24;18.35;;;2.38;;
56477;SDS011;42382;53.210;5.772;2024-03-25T00:24:52;15.60;;;2.22;;
56477;SDS011;42382;53.210;5.772;2024-03-25T00:27:18;19.73;;;1.60;;
56477;SDS011;42382;53.210;5.772;2024-03-25T00:29:46;14.90;;;1.98;;
56477;SDS011;42382;53.210;5.772;2024-03-25T00:32:12;16.02;;;2.60;;
56477;SDS011;42382;53.210;5.772;2024-03-25T00:34:37;15.07;;;1.70;;
56477;SDS011;42382;53.210;5.772;2024-03-25T00:37:03;12.88;;;1.58;;
56477;SDS011;42382;53.210;5.772;2024-03-25T00:39:29;12.80;;;1.27;;
56477;SDS011;42382;53.210;5.772;2024-03-25T00:41:57;12.93;;;1.55;;
56477;SDS011;42382;53.210;5.772;2024-03-25T00:44:23;19.17;;;2.53;;
56477;SDS011;42382;53.210;5.772;2024-03-25T00:46:49;19.33;;;2.38;;
56477;SDS011;42382;53.210;5.772;2024-03-25T00:49:15;17.50;;;2.13;;
56477;SDS011;42382;53.210;5.772;2024-03-25T00:51:40;19.90;;;1.77;;
56477;SDS011;42382;53.210;5.772;2024-03-25T00:54:06;24.50;;;1.95;;
56477;SDS011;42382;53.210;5.772;2024-03-25T00:56:32;20.77;;;2.53;;
56477;SDS011;42382;53.210;5.772;2024-03-25T00:58:58;17.65;;;1.92;;
56477;SDS011;42382;53.210;5.772;2024-03-25T01:01:27;13.25;;;1.77;;
56477;SDS011;42382;53.210;5.772;2024-03-25T01:03:57;10.82;;;1.02;;
56477;SDS011;42382;53.210;5.772;2024-03-25T01:06:23;16.55;;;1.27;;
56477;SDS011;42382;53.210;5.772;2024-03-25T01:08:49;11.98;;;1.08;;
56477;SDS011;42382;53.210;5.772;2024-03-25T01:11:15;12.43;;;1.65;;
56477;SDS011;42382;53.210;5.772;2024-03-25T01:13:41;9.00;;;1.05;;
56477;SDS011;42382;53.210;5.772;2024-03-25T01:16:06;14.95;;;1.52;;
56477;SDS011;42382;53.210;5.772;2024-03-25T01:18:32;8.38;;;0.65;;
56477;SDS011;42382;53.210;5.772;2024-03-25T01:20:58;8.65;;;0.55;;
56477;SDS011;42382;53.210;5.772;2024-03-25T01:23:24;14.45;;;1.02;;
56477;SDS011;42382;53.210;5.772;2024-03-25T01:25:50;16.95;;;1.33;;
56477;SDS011;42382;53.210;5.772;2024-03-25T01:28:16;17.38;;;1.60;;
56477;SDS011;42382;53.210;5.772;2024-03-25T01:30:42;13.68;;;1.88;;
56477;SDS011;42382;53.210;5.772;2024-03-25T01:33:08;12.93;;;1.23;;
56477;SDS011;42382;53.210;5.772;2024-03-25T01:35:34;15.13;;;1.08;;
56477;SDS011;42382;53.210;5.772;2024-03-25T01:38:00;17.55;;;1.70;;
56477;SDS011;42382;53.210;5.772;2024-03-25T01:40:26;14.98;;;1.25;;
56477;SDS011;42382;53.210;5.772;2024-03-25T01:43:09;14.13;;;1.15;;
56477;SDS011;42382;53.210;5.772;2024-03-25T01:45:35;12.00;;;0.90;;
56477;SDS011;42382;53.210;5.772;2024-03-25T01:48:07;14.88;;;1.38;;
56477;SDS011;42382;53.210;5.772;2024-03-25T01:50:36;15.35;;;0.88;;
56477;SDS011;42382;53.210;5.772;2024-03-25T01:53:04;11.38;;;1.30;;
56477;SDS011;42382;53.210;5.772;2024-03-25T01:55:30;16.20;;;1.30;;
56477;SDS011;42382;53.210;5.772;2024-03-25T01:57:59;8.70;;;0.90;;
56477;SDS011;42382;53.210;5.772;2024-03-25T02:00:25;12.35;;;1.30;;
56477;SDS011;42382;53.210;5.772;2024-03-25T02:02:52;14.07;;;1.67;;
56477;SDS011;42382;53.210;5.772;2024-03-25T02:05:18;11.10;;;0.90;;
56477;SDS011;42382;53.210;5.772;2024-03-25T02:07:45;9.23;;;1.00;;
56477;SDS011;42382;53.210;5.772;2024-03-25T02:10:11;13.07;;;1.15;;
56477;SDS011;42382;53.210;5.772;2024-03-25T02:12:43;14.10;;;1.20;;
56477;SDS011;42382;53.210;5.772;2024-03-25T02:15:11;10.60;;;1.00;;
56477;SDS011;42382;53.210;5.772;2024-03-25T02:17:38;11.32;;;1.45;;
56477;SDS011;42382;53.210;5.772;2024-03-25T02:20:04;8.38;;;0.85;;
56477;SDS011;42382;53.210;5.772;2024-03-25T02:22:32;10.23;;;0.77;;
56477;SDS011;42382;53.210;5.772;2024-03-25T02:24:58;11.45;;;1.40;;
56477;SDS011;42382;53.210;5.772;2024-03-25T02:27:25;13.05;;;1.17;;
56477;SDS011;42382;53.210;5.772;2024-03-25T02:29:53;18.40;;;2.05;;
56477;SDS011;42382;53.210;5.772;2024-03-25T02:32:19;14.82;;;1.15;;
56477;SDS011;42382;53.210;5.772;2024-03-25T02:34:47;12.25;;;1.15;;
56477;SDS011;42382;53.210;5.772;2024-03-25T02:37:16;12.60;;;1.25;;
56477;SDS011;42382;53.210;5.772;2024-03-25T02:39:42;7.80;;;0.55;;
56477;SDS011;42382;53.210;5.772;2024-03-25T02:42:08;13.18;;;1.40;;
56477;SDS011;42382;53.210;5.772;2024-03-25T02:44:34;12.75;;;0.88;;
56477;SDS011;42382;53.210;5.772;2024-03-25T02:47:00;12.55;;;1.10;;
56477;SDS011;42382;53.210;5.772;2024-03-25T02:49:27;14.45;;;1.25;;
56477;SDS011;42382;53.210;5.772;2024-03-25T02:51:53;15.43;;;1.67;;
56477;SDS011;42382;53.210;5.772;2024-03-25T02:54:18;9.85;;;1.67;;
56477;SDS011;42382;53.210;5.772;2024-03-25T02:56:44;13.57;;;0.90;;
56477;SDS011;42382;53.210;5.772;2024-03-25T02:59:10;9.85;;;1.30;;
56477;SDS011;42382;53.210;5.772;2024-03-25T03:01:35;5.80;;;1.08;;
56477;SDS011;42382;53.210;5.772;2024-03-25T03:04:01;10.25;;;1.30;;
56477;SDS011;42382;53.210;5.772;2024-03-25T03:06:26;11.90;;;0.90;;
56477;SDS011;42382;53.210;5.772;2024-03-25T03:08:52;17.38;;;1.80;;
56477;SDS011;42382;53.210;5.772;2024-03-25T03:11:18;17.35;;;1.20;;
56477;SDS011;42382;53.210;5.772;2024-03-25T03:13:43;14.48;;;1.02;;
56477;SDS011;42382;53.210;5.772;2024-03-25T03:16:09;14.40;;;0.98;;
56477;SDS011;42382;53.210;5.772;2024-03-25T03:18:34;12.93;;;1.38;;
56477;SDS011;42382;53.210;5.772;2024-03-25T03:21:00;15.23;;;1.02;;
56477;SDS011;42382;53.210;5.772;2024-03-25T03:23:26;13.82;;;1.13;;
56477;SDS011;42382;53.210;5.772;2024-03-25T03:25:52;11.55;;;0.80;;
56477;SDS011;42382;53.210;5.772;2024-03-25T03:28:18;12.95;;;0.90;;
56477;SDS011;42382;53.210;5.772;2024-03-25T03:30:43;15.70;;;1.63;;
56477;SDS011;42382;53.210;5.772;2024-03-25T03:33:09;17.63;;;1.38;;
56477;SDS011;42382;53.210;5.772;2024-03-25T03:35:35;14.75;;;1.20;;
56477;SDS011;42382;53.210;5.772;2024-03-25T03:38:01;11.77;;;1.90;;
56477;SDS011;42382;53.210;5.772;2024-03-25T03:40:28;13.88;;;1.15;;
56477;SDS011;42382;53.210;5.772;2024-03-25T03:42:54;13.38;;;1.17;;
56477;SDS011;42382;53.210;5.772;2024-03-25T03:45:20;17.85;;;1.63;;
56477;SDS011;42382;53.210;5.772;2024-03-25T03:47:48;10.40;;;1.35;;
56477;SDS011;42382;53.210;5.772;2024-03-25T03:50:14;12.45;;;1.25;;
56477;SDS011;42382;53.210;5.772;2024-03-25T03:52:40;11.30;;;1.23;;
56477;SDS011;42382;53.210;5.772;2024-03-25T03:55:06;13.55;;;1.55;;
56477;SDS011;42382;53.210;5.772;2024-03-25T03:57:32;17.88;;;1.10;;
56477;SDS011;42382;53.210;5.772;2024-03-25T03:59:58;15.98;;;2.00;;
56477;SDS011;42382;53.210;5.772;2024-03-25T04:02:24;10.45;;;1.00;;
56477;SDS011;42382;53.210;5.772;2024-03-25T04:04:51;13.57;;;1.35;;
56477;SDS011;42382;53.210;5.772;2024-03-25T04:07:16;12.30;;;1.17;;
56477;SDS011;42382;53.210;5.772;2024-03-25T04:09:42;11.40;;;1.70;;
56477;SDS011;42382;53.210;5.772;2024-03-25T04:12:08;10.48;;;0.70;;
56477;SDS011;42382;53.210;5.772;2024-03-25T04:14:33;9.88;;;1.20;;
56477;SDS011;42382;53.210;5.772;2024-03-25T04:16:59;8.00;;;0.88;;
56477;SDS011;42382;53.210;5.772;2024-03-25T04:19:25;9.05;;;0.60;;
56477;SDS011;42382;53.210;5.772;2024-03-25T04:21:53;9.45;;;1.25;;
56477;SDS011;42382;53.210;5.772;2024-03-25T04:24:18;11.60;;;1.02;;
56477;SDS011;42382;53.210;5.772;2024-03-25T04:26:45;10.80;;;0.93;;
56477;SDS011;42382;53.210;5.772;2024-03-25T04:29:11;11.43;;;1.13;;
56477;SDS011;42382;53.210;5.772;2024-03-25T04:31:36;12.32;;;0.95;;
56477;SDS011;42382;53.210;5.772;2024-03-25T04:34:04;12.82;;;1.50;;
56477;SDS011;42382;53.210;5.772;2024-03-25T04:36:30;10.75;;;1.55;;
56477;SDS011;42382;53.210;5.772;2024-03-25T04:38:56;14.88;;;1.65;;
56477;SDS011;42382;53.210;5.772;2024-03-25T04:41:22;14.10;;;1.10;;
56477;SDS011;42382;53.210;5.772;2024-03-25T04:43:47;4.78;;;0.70;;
56477;SDS011;42382;53.210;5.772;2024-03-25T04:46:13;15.43;;;0.70;;
56477;SDS011;42382;53.210;5.772;2024-03-25T04:48:39;7.10;;;0.70;;
56477;SDS011;42382;53.210;5.772;2024-03-25T04:51:04;6.65;;;0.28;;
56477;SDS011;42382;53.210;5.772;2024-03-25T04:53:30;7.60;;;0.45;;
56477;SDS011;42382;53.210;5.772;2024-03-25T04:55:56;10.50;;;1.38;;
56477;SDS011;42382;53.210;5.772;2024-03-25T04:58:22;6.22;;;0.50;;
56477;SDS011;42382;53.210;5.772;2024-03-25T05:00:47;9.40;;;0.40;;
56477;SDS011;42382;53.210;5.772;2024-03-25T05:03:13;7.18;;;0.50;;
56477;SDS011;42382;53.210;5.772;2024-03-25T05:05:38;5.78;;;0.50;;
56477;SDS011;42382;53.210;5.772;2024-03-25T05:08:04;4.65;;;0.65;;
56477;SDS011;42382;53.210;5.772;2024-03-25T05:10:30;8.55;;;0.80;;
56477;SDS011;42382;53.210;5.772;2024-03-25T05:12:55;7.28;;;0.68;;
56477;SDS011;42382;53.210;5.772;2024-03-25T05:15:22;5.28;;;0.38;;
56477;SDS011;42382;53.210;5.772;2024-03-25T05:17:47;10.35;;;0.85;;
56477;SDS011;42382;53.210;5.772;2024-03-25T05:20:13;8.68;;;0.85;;
56477;SDS011;42382;53.210;5.772;2024-03-25T05:22:39;9.70;;;0.50;;
56477;SDS011;42382;53.210;5.772;2024-03-25T05:25:05;9.23;;;0.65;;
56477;SDS011;42382;53.210;5.772;2024-03-25T05:27:30;13.02;;;1.88;;
56477;SDS011;42382;53.210;5.772;2024-03-25T05:29:56;7.18;;;0.57;;
56477;SDS011;42382;53.210;5.772;2024-03-25T05:32:21;12.65;;;2.15;;
56477;SDS011;42382;53.210;5.772;2024-03-25T05:34:47;5.82;;;0.50;;
56477;SDS011;42382;53.210;5.772;2024-03-25T05:37:15;7.75;;;0.63;;
56477;SDS011;42382;53.210;5.772;2024-03-25T05:39:41;5.63;;;0.40;;
56477;SDS011;42382;53.210;5.772;2024-03-25T05:42:06;7.53;;;0.85;;
56477;SDS011;42382;53.210;5.772;2024-03-25T05:44:32;6.80;;;0.73;;
56477;SDS011;42382;53.210;5.772;2024-03-25T05:46:58;6.40;;;0.70;;
56477;SDS011;42382;53.210;5.772;2024-03-25T05:49:23;13.15;;;1.00;;
56477;SDS011;42382;53.210;5.772;2024-03-25T05:51:49;11.10;;;0.75;;
56477;SDS011;42382;53.210;5.772;2024-03-25T05:54:14;5.18;;;0.50;;
56477;SDS011;42382;53.210;5.772;2024-03-25T05:56:40;10.15;;;0.88;;
56477;SDS011;42382;53.210;5.772;2024-03-25T05:59:06;12.68;;;1.95;;
56477;SDS011;42382;53.210;5.772;2024-03-25T06:01:31;9.70;;;0.80;;
56477;SDS011;42382;53.210;5.772;2024-03-25T06:03:58;11.90;;;0.70;;
56477;SDS011;42382;53.210;5.772;2024-03-25T06:06:24;8.65;;;1.35;;
56477;SDS011;42382;53.210;5.772;2024-03-25T06:08:50;8.82;;;1.08;;
56477;SDS011;42382;53.210;5.772;2024-03-25T06:11:15;8.77;;;1.35;;
56477;SDS011;42382;53.210;5.772;2024-03-25T06:13:45;10.75;;;0.70;;
56477;SDS011;42382;53.210;5.772;2024-03-25T06:16:12;11.57;;;1.50;;
56477;SDS011;42382;53.210;5.772;2024-03-25T06:18:38;14.88;;;1.95;;
56477;SDS011;42382;53.210;5.772;2024-03-25T06:21:05;9.90;;;0.93;;
56477;SDS011;42382;53.210;5.772;2024-03-25T06:23:31;9.98;;;1.27;;
56477;SDS011;42382;53.210;5.772;2024-03-25T06:25:56;8.30;;;0.90;;
56477;SDS011;42382;53.210;5.772;2024-03-25T06:28:22;9.93;;;1.63;;
56477;SDS011;42382;53.210;5.772;2024-03-25T06:30:48;10.70;;;1.55;;
56477;SDS011;42382;53.210;5.772;2024-03-25T06:33:34;9.05;;;1.20;;
56477;SDS011;42382;53.210;5.772;2024-03-25T06:36:18;9.35;;;1.17;;
56477;SDS011;42382;53.210;5.772;2024-03-25T06:38:45;12.65;;;1.48;;
56477;SDS011;42382;53.210;5.772;2024-03-25T06:41:10;12.85;;;1.17;;
56477;SDS011;42382;53.210;5.772;2024-03-25T06:43:36;14.68;;;1.05;;
56477;SDS011;42382;53.210;5.772;2024-03-25T06:46:06;13.23;;;1.55;;
56477;SDS011;42382;53.210;5.772;2024-03-25T06:48:34;9.00;;;1.10;;
56477;SDS011;42382;53.210;5.772;2024-03-25T06:51:01;12.15;;;1.38;;
56477;SDS011;42382;53.210;5.772;2024-03-25T06:53:30;8.98;;;1.15;;
56477;SDS011;42382;53.210;5.772;2024-03-25T06:55:56;16.63;;;2.15;;
56477;SDS011;42382;53.210;5.772;2024-03-25T06:58:23;17.50;;;2.40;;
56477;SDS011;42382;53.210;5.772;2024-03-25T07:00:50;15.57;;;1.58;;
56477;SDS011;42382;53.210;5.772;2024-03-25T07:03:16;11.40;;;1.67;;
56477;SDS011;42382;53.210;5.772;2024-03-25T07:05:46;11.00;;;1.83;;
56477;SDS011;42382;53.210;5.772;2024-03-25T07:08:12;13.85;;;1.20;;
56477;SDS011;42382;53.210;5.772;2024-03-25T07:10:38;10.45;;;1.13;;
56477;SDS011;42382;53.210;5.772;2024-03-25T07:13:06;10.40;;;1.23;;
56477;SDS011;42382;53.210;5.772;2024-03-25T07:15:32;8.93;;;1.15;;
56477;SDS011;42382;53.210;5.772;2024-03-25T07:17:58;6.03;;;0.75;;
56477;SDS011;42382;53.210;5.772;2024-03-25T07:20:25;8.43;;;0.70;;
56477;SDS011;42382;53.210;5.772;2024-03-25T07:22:51;8.07;;;1.63;;
56477;SDS011;42382;53.210;5.772;2024-03-25T07:25:20;7.63;;;0.60;;
56477;SDS011;42382;53.210;5.772;2024-03-25T07:27:46;9.40;;;0.95;;
56477;SDS011;42382;53.210;5.772;2024-03-25T07:30:11;6.10;;;0.50;;
56477;SDS011;42382;53.210;5.772;2024-03-25T07:32:37;9.40;;;0.88;;
56477;SDS011;42382;53.210;5.772;2024-03-25T07:35:03;7.85;;;0.52;;
56477;SDS011;42382;53.210;5.772;2024-03-25T07:37:30;8.38;;;0.60;;
56477;SDS011;42382;53.210;5.772;2024-03-25T07:39:55;9.48;;;0.60;;
56477;SDS011;42382;53.210;5.772;2024-03-25T07:42:21;8.60;;;0.90;;
56477;SDS011;42382;53.210;5.772;2024-03-25T07:44:47;10.18;;;1.17;;
56477;SDS011;42382;53.210;5.772;2024-03-25T07:47:12;9.75;;;0.88;;
56477;SDS011;42382;53.210;5.772;2024-03-25T07:49:38;11.50;;;1.33;;
56477;SDS011;42382;53.210;5.772;2024-03-25T07:52:05;8.45;;;0.85;;
56477;SDS011;42382;53.210;5.772;2024-03-25T07:54:31;7.07;;;0.88;;
56477;SDS011;42382;53.210;5.772;2024-03-25T07:56:56;10.93;;;1.10;;
56477;SDS011;42382;53.210;5.772;2024-03-25T07:59:22;7.63;;;0.50;;
56477;SDS011;42382;53.210;5.772;2024-03-25T08:01:48;8.55;;;1.20;;
56477;SDS011;42382;53.210;5.772;2024-03-25T08:04:13;6.72;;;1.05;;
56477;SDS011;42382;53.210;5.772;2024-03-25T08:06:39;14.18;;;1.20;;
56477;SDS011;42382;53.210;5.772;2024-03-25T08:09:05;11.73;;;1.27;;
56477;SDS011;42382;53.210;5.772;2024-03-25T08:11:31;11.23;;;1.38;;
56477;SDS011;42382;53.210;5.772;2024-03-25T08:13:57;14.00;;;1.50;;
56477;SDS011;42382;53.210;5.772;2024-03-25T08:16:23;10.48;;;1.10;;
56477;SDS011;42382;53.210;5.772;2024-03-25T08:18:48;12.55;;;1.77;;
56477;SDS011;42382;53.210;5.772;2024-03-25T08:21:15;9.88;;;1.02;;
56477;SDS011;42382;53.210;5.772;2024-03-25T08:23:41;16.08;;;2.83;;
56477;SDS011;42382;53.210;5.772;2024-03-25T08:26:09;17.13;;;1.63;;
56477;SDS011;42382;53.210;5.772;2024-03-25T08:28:34;13.90;;;1.55;;
56477;SDS011;42382;53.210;5.772;2024-03-25T08:31:00;11.88;;;1.48;;
56477;SDS011;42382;53.210;5.772;2024-03-25T08:33:25;11.85;;;1.27;;
56477;SDS011;42382;53.210;5.772;2024-03-25T08:35:51;11.48;;;1.70;;
56477;SDS011;42382;53.210;5.772;2024-03-25T08:38:17;10.10;;;1.23;;
56477;SDS011;42382;53.210;5.772;2024-03-25T08:40:42;9.27;;;1.60;;
56477;SDS011;42382;53.210;5.772;2024-03-25T08:43:08;18.55;;;4.70;;
56477;SDS011;42382;53.210;5.772;2024-03-25T08:45:34;9.00;;;0.95;;
56477;SDS011;42382;53.210;5.772;2024-03-25T08:47:59;17.60;;;1.58;;
56477;SDS011;42382;53.210;5.772;2024-03-25T08:50:25;7.97;;;1.00;;
56477;SDS011;42382;53.210;5.772;2024-03-25T08:52:50;13.02;;;1.25;;
56477;SDS011;42382;53.210;5.772;2024-03-25T08:55:16;14.07;;;2.20;;
56477;SDS011;42382;53.210;5.772;2024-03-25T08:57:41;9.95;;;1.05;;
56477;SDS011;42382;53.210;5.772;2024-03-25T09:00:07;13.73;;;2.10;;
56477;SDS011;42382;53.210;5.772;2024-03-25T09:02:35;18.33;;;1.70;;
56477;SDS011;42382;53.210;5.772;2024-03-25T09:05:01;11.68;;;1.35;;
56477;SDS011;42382;53.210;5.772;2024-03-25T09:07:30;13.88;;;1.98;;
56477;SDS011;42382;53.210;5.772;2024-03-25T09:09:56;11.77;;;2.20;;
56477;SDS011;42382;53.210;5.772;2024-03-25T09:12:41;14.70;;;1.83;;
56477;SDS011;42382;53.210;5.772;2024-03-25T09:15:06;12.43;;;1.50;;
56477;SDS011;42382;53.210;5.772;2024-03-25T09:17:32;12.05;;;1.45;;
56477;SDS011;42382;53.210;5.772;2024-03-25T09:19:57;12.57;;;1.48;;
56477;SDS011;42382;53.210;5.772;2024-03-25T09:22:23;15.45;;;1.65;;
56477;SDS011;42382;53.210;5.772;2024-03-25T09:24:49;13.98;;;2.15;;
56477;SDS011;42382;53.210;5.772;2024-03-25T09:27:14;15.43;;;2.88;;
56477;SDS011;42382;53.210;5.772;2024-03-25T09:29:41;9.85;;;1.75;;
56477;SDS011;42382;53.210;5.772;2024-03-25T09:32:07;11.00;;;1.40;;
56477;SDS011;42382;53.210;5.772;2024-03-25T09:34:32;11.02;;;1.63;;
56477;SDS011;42382;53.210;5.772;2024-03-25T09:36:58;11.75;;;1.55;;
56477;SDS011;42382;53.210;5.772;2024-03-25T09:39:24;8.63;;;1.35;;
56477;SDS011;42382;53.210;5.772;2024-03-25T09:41:51;9.40;;;0.98;;
56477;SDS011;42382;53.210;5.772;2024-03-25T09:44:22;11.65;;;1.42;;
56477;SDS011;42382;53.210;5.772;2024-03-25T09:46:50;11.68;;;1.42;;
56477;SDS011;42382;53.210;5.772;2024-03-25T09:49:16;9.50;;;1.05;;
56477;SDS011;42382;53.210;5.772;2024-03-25T09:51:42;13.82;;;1.27;;
56477;SDS011;42382;53.210;5.772;2024-03-25T09:54:08;15.23;;;1.33;;
56477;SDS011;42382;53.210;5.772;2024-03-25T09:56:35;9.60;;;1.10;;
56477;SDS011;42382;53.210;5.772;2024-03-25T09:59:02;14.30;;;1.55;;
56477;SDS011;42382;53.210;5.772;2024-03-25T10:01:28;9.32;;;1.02;;
56477;SDS011;42382;53.210;5.772;2024-03-25T10:03:54;10.68;;;1.50;;
56477;SDS011;42382;53.210;5.772;2024-03-25T10:06:20;9.50;;;1.10;;
56477;SDS011;42382;53.210;5.772;2024-03-25T10:08:46;11.63;;;1.48;;
56477;SDS011;42382;53.210;5.772;2024-03-25T10:11:15;9.80;;;1.15;;
56477;SDS011;42382;53.210;5.772;2024-03-25T10:13:41;7.18;;;1.00;;
56477;SDS011;42382;53.210;5.772;2024-03-25T10:16:07;12.18;;;1.83;;
56477;SDS011;42382;53.210;5.772;2024-03-25T10:18:32;13.55;;;1.95;;
56477;SDS011;42382;53.210;5.772;2024-03-25T10:20:58;15.38;;;1.48;;
56477;SDS011;42382;53.210;5.772;2024-03-25T10:23:24;10.85;;;1.25;;
56477;SDS011;42382;53.210;5.772;2024-03-25T10:25:55;12.13;;;1.33;;
56477;SDS011;42382;53.210;5.772;2024-03-25T10:28:20;12.15;;;1.15;;
56477;SDS011;42382;53.210;5.772;2024-03-25T10:30:46;10.05;;;1.35;;
56477;SDS011;42382;53.210;5.772;2024-03-25T10:33:12;14.65;;;1.65;;
56477;SDS011;42382;53.210;5.772;2024-03-25T10:35:38;10.38;;;1.40;;
56477;SDS011;42382;53.210;5.772;2024-03-25T10:38:06;12.38;;;1.90;;
56477;SDS011;42382;53.210;5.772;2024-03-25T10:40:34;8.45;;;1.27;;
56477;SDS011;42382;53.210;5.772;2024-03-25T10:43:03;11.27;;;1.60;;
56477;SDS011;42382;53.210;5.772;2024-03-25T10:45:46;11.73;;;1.90;;
56477;SDS011;42382;53.210;5.772;2024-03-25T10:48:19;10.55;;;1.33;;
56477;SDS011;42382;53.210;5.772;2024-03-25T10:50:56;8.55;;;0.95;;
56477;SDS011;42382;53.210;5.772;2024-03-25T10:53:25;11.30;;;1.48;;
56477;SDS011;42382;53.210;5.772;2024-03-25T10:55:54;11.73;;;1.17;;
56477;SDS011;42382;53.210;5.772;2024-03-25T10:58:21;6.30;;;1.33;;
56477;SDS011;42382;53.210;5.772;2024-03-25T11:00:51;5.75;;;0.77;;
56477;SDS011;42382;53.210;5.772;2024-03-25T11:03:21;10.95;;;1.02;;
56477;SDS011;42382;53.210;5.772;2024-03-25T11:05:48;11.20;;;1.77;;
56477;SDS011;42382;53.210;5.772;2024-03-25T11:08:15;10.27;;;1.33;;
56477;SDS011;42382;53.210;5.772;2024-03-25T11:10:43;11.27;;;0.90;;
56477;SDS011;42382;53.210;5.772;2024-03-25T11:13:12;9.85;;;1.73;;
56477;SDS011;42382;53.210;5.772;2024-03-25T11:15:45;8.02;;;1.35;;
56477;SDS011;42382;53.210;5.772;2024-03-25T11:18:13;11.73;;;1.33;;
56477;SDS011;42382;53.210;5.772;2024-03-25T11:20:39;5.55;;;0.82;;
56477;SDS011;42382;53.210;5.772;2024-03-25T11:23:11;10.88;;;1.45;;
56477;SDS011;42382;53.210;5.772;2024-03-25T11:25:38;5.80;;;0.85;;
56477;SDS011;42382;53.210;5.772;2024-03-25T11:28:05;13.60;;;1.38;;
56477;SDS011;42382;53.210;5.772;2024-03-25T11:30:31;10.05;;;1.20;;
56477;SDS011;42382;53.210;5.772;2024-03-25T11:32:57;9.23;;;1.27;;
56477;SDS011;42382;53.210;5.772;2024-03-25T11:35:27;15.70;;;2.05;;
56477;SDS011;42382;53.210;5.772;2024-03-25T11:37:53;11.80;;;1.90;;
56477;SDS011;42382;53.210;5.772;2024-03-25T11:40:19;10.70;;;1.20;;
56477;SDS011;42382;53.210;5.772;2024-03-25T11:42:45;10.70;;;1.73;;
56477;SDS011;42382;53.210;5.772;2024-03-25T11:45:18;9.30;;;1.00;;
56477;SDS011;42382;53.210;5.772;2024-03-25T11:47:45;9.25;;;1.10;;
56477;SDS011;42382;53.210;5.772;2024-03-25T11:50:12;10.88;;;1.33;;
56477;SDS011;42382;53.210;5.772;2024-03-25T11:52:40;12.32;;;1.45;;
56477;SDS011;42382;53.210;5.772;2024-03-25T11:55:06;11.88;;;1.13;;
56477;SDS011;42382;53.210;5.772;2024-03-25T11:57:37;9.57;;;1.55;;
56477;SDS011;42382;53.210;5.772;2024-03-25T12:00:03;13.50;;;1.92;;
56477;SDS011;42382;53.210;5.772;2024-03-25T12:02:35;10.07;;;1.10;;
56477;SDS011;42382;53.210;5.772;2024-03-25T12:05:02;10.60;;;1.45;;
56477;SDS011;42382;53.210;5.772;2024-03-25T12:07:30;13.90;;;2.72;;
56477;SDS011;42382;53.210;5.772;2024-03-25T12:09:57;8.25;;;1.30;;
56477;SDS011;42382;53.210;5.772;2024-03-25T12:12:41;10.48;;;1.15;;
56477;SDS011;42382;53.210;5.772;2024-03-25T12:15:08;8.07;;;1.33;;
56477;SDS011;42382;53.210;5.772;2024-03-25T12:17:34;10.35;;;1.10;;
56477;SDS011;42382;53.210;5.772;2024-03-25T12:20:04;9.82;;;1.02;;
56477;SDS011;42382;53.210;5.772;2024-03-25T12:22:34;10.73;;;1.23;;
56477;SDS011;42382;53.210;5.772;2024-03-25T12:25:04;9.48;;;1.58;;
56477;SDS011;42382;53.210;5.772;2024-03-25T12:27:37;8.63;;;0.70;;
56477;SDS011;42382;53.210;5.772;2024-03-25T12:30:05;9.40;;;1.42;;
56477;SDS011;42382;53.210;5.772;2024-03-25T12:32:38;7.28;;;0.60;;
56477;SDS011;42382;53.210;5.772;2024-03-25T12:35:06;9.25;;;1.00;;
56477;SDS011;42382;53.210;5.772;2024-03-25T12:37:36;9.18;;;1.20;;
56477;SDS011;42382;53.210;5.772;2024-03-25T12:40:03;8.40;;;0.68;;
56477;SDS011;42382;53.210;5.772;2024-03-25T12:42:31;10.27;;;1.40;;
56477;SDS011;42382;53.210;5.772;2024-03-25T12:44:57;9.80;;;1.00;;
56477;SDS011;42382;53.210;5.772;2024-03-25T12:47:23;11.07;;;1.20;;
56477;SDS011;42382;53.210;5.772;2024-03-25T12:49:48;9.07;;;1.17;;
56477;SDS011;42382;53.210;5.772;2024-03-25T12:52:14;7.68;;;1.20;;
56477;SDS011;42382;53.210;5.772;2024-03-25T12:54:39;8.00;;;1.13;;
56477;SDS011;42382;53.210;5.772;2024-03-25T12:57:06;7.57;;;0.68;;
56477;SDS011;42382;53.210;5.772;2024-03-25T12:59:32;11.70;;;1.20;;
56477;SDS011;42382;53.210;5.772;2024-03-25T13:01:58;11.23;;;1.23;;
56477;SDS011;42382;53.210;5.772;2024-03-25T13:04:24;13.27;;;1.50;;
56477;SDS011;42382;53.210;5.772;2024-03-25T13:06:50;6.97;;;0.85;;
56477;SDS011;42382;53.210;5.772;2024-03-25T13:09:16;9.98;;;1.25;;
56477;SDS011;42382;53.210;5.772;2024-03-25T13:11:41;9.43;;;1.27;;
56477;SDS011;42382;53.210;5.772;2024-03-25T13:14:07;8.15;;;0.73;;
56477;SDS011;42382;53.210;5.772;2024-03-25T13:16:36;6.28;;;0.80;;
56477;SDS011;42382;53.210;5.772;2024-03-25T13:19:01;8.57;;;0.73;;
56477;SDS011;42382;53.210;5.772;2024-03-25T13:21:27;4.75;;;0.52;;
56477;SDS011;42382;53.210;5.772;2024-03-25T13:23:52;9.38;;;1.27;;
56477;SDS011;42382;53.210;5.772;2024-03-25T13:26:18;6.25;;;0.73;;
56477;SDS011;42382;53.210;5.772;2024-03-25T13:28:44;10.57;;;1.25;;
56477;SDS011;42382;53.210;5.772;2024-03-25T13:31:10;4.32;;;0.50;;
56477;SDS011;42382;53.210;5.772;2024-03-25T13:33:36;7.05;;;0.50;;
56477;SDS011;42382;53.210;5.772;2024-03-25T13:36:02;9.40;;;0.75;;
56477;SDS011;42382;53.210;5.772;2024-03-25T13:38:29;7.35;;;0.77;;
56477;SDS011;42382;53.210;5.772;2024-03-25T13:40:55;7.78;;;0.98;;
56477;SDS011;42382;53.210;5.772;2024-03-25T13:43:20;7.05;;;0.82;;
56477;SDS011;42382;53.210;5.772;2024-03-25T13:45:46;6.70;;;0.70;;
56477;SDS011;42382;53.210;5.772;2024-03-25T13:48:13;6.43;;;0.50;;
56477;SDS011;42382;53.210;5.772;2024-03-25T13:50:40;4.80;;;0.70;;
56477;SDS011;42382;53.210;5.772;2024-03-25T13:53:05;7.80;;;0.90;;
56477;SDS011;42382;53.210;5.772;2024-03-25T13:55:31;6.40;;;0.50;;
56477;SDS011;42382;53.210;5.772;2024-03-25T13:57:57;4.57;;;0.50;;
56477;SDS011;42382;53.210;5.772;2024-03-25T14:00:22;6.10;;;1.10;;
56477;SDS011;42382;53.210;5.772;2024-03-25T14:02:51;4.80;;;0.60;;
56477;SDS011;42382;53.210;5.772;2024-03-25T14:05:17;5.97;;;1.13;;
56477;SDS011;42382;53.210;5.772;2024-03-25T14:07:43;6.55;;;1.08;;
56477;SDS011;42382;53.210;5.772;2024-03-25T14:10:08;4.35;;;0.25;;
56477;SDS011;42382;53.210;5.772;2024-03-25T14:12:36;4.30;;;0.73;;
56477;SDS011;42382;53.210;5.772;2024-03-25T14:15:02;6.07;;;1.23;;
56477;SDS011;42382;53.210;5.772;2024-03-25T14:17:28;5.53;;;0.50;;
56477;SDS011;42382;53.210;5.772;2024-03-25T14:19:55;3.85;;;0.40;;
56477;SDS011;42382;53.210;5.772;2024-03-25T14:22:21;3.50;;;0.40;;
56477;SDS011;42382;53.210;5.772;2024-03-25T14:24:47;3.90;;;0.57;;
56477;SDS011;42382;53.210;5.772;2024-03-25T14:27:13;5.38;;;0.47;;
56477;SDS011;42382;53.210;5.772;2024-03-25T14:29:39;5.10;;;0.45;;
56477;SDS011;42382;53.210;5.772;2024-03-25T14:32:04;2.60;;;0.60;;
56477;SDS011;42382;53.210;5.772;2024-03-25T14:34:30;7.20;;;0.52;;
56477;SDS011;42382;53.210;5.772;2024-03-25T14:36:56;6.43;;;1.00;;